sensor_id;sensor_type;location;lat;lon;timestamp;pressure;altitude;pressure_sealevel;temperature;humidity
36190;BME280;22232;50.914;13.858;2022-08-01T00:01:14;97628.66;;;20.05;100.00
36190;BME280;22232;50.914;13.858;2022-08-01T00:03:41;97627.34;;;20.03;100.00
36190;BME280;22232;50.914;13.858;2022-08-01T00:06:09;97620.63;;;20.00;100.00
36190;BME280;22232;50.914;13.858;2022-08-01T00:08:37;97622.53;;;20.00;100.00
36190;BME280;22232;50.914;13.858;2022-08-01T00:11:04;97613.59;;;19.99;100.00
36190;BME280;22232;50.914;13.858;2022-08-01T00:13:32;97605.47;;;19.99;100.00
36190;BME280;22232;50.914;13.858;2022-08-01T00:16:00;97601.97;;;19.99;100.00
36190;BME280;22232;50.914;13.858;2022-08-01T00:18:27;97595.16;;;20.01;100.00
36190;BME280;22232;50.914;13.858;2022-08-01T00:20:55;97593.75;;;20.04;100.00
36190;BME280;22232;50.914;13.858;2022-08-01T00:23:23;97601.09;;;20.03;100.00
36190;BME280;22232;50.914;13.858;2022-08-01T00:25:50;97589.47;;;20.03;100.00
36190;BME280;22232;50.914;13.858;2022-08-01T00:28:18;97588.94;;;20.01;100.00
36190;BME280;22232;50.914;13.858;2022-08-01T00:30:45;97598.44;;;19.98;100.00
36190;BME280;22232;50.914;13.858;2022-08-01T00:33:13;97589.63;;;19.92;100.00
36190;BME280;22232;50.914;13.858;2022-08-01T00:35:41;97596.13;;;19.91;100.00
36190;BME280;22232;50.914;13.858;2022-08-01T00:38:09;97599.44;;;19.88;100.00
36190;BME280;22232;50.914;13.858;2022-08-01T00:40:36;97593.50;;;19.86;100.00
36190;BME280;22232;50.914;13.858;2022-08-01T00:43:04;97595.72;;;19.84;100.00
36190;BME280;22232;50.914;13.858;2022-08-01T00:45:32;97593.09;;;19.79;100.00
36190;BME280;22232;50.914;13.858;2022-08-01T00:47:59;97598.78;;;19.78;100.00
36190;BME280;22232;50.914;13.858;2022-08-01T00:50:27;97597.19;;;19.77;100.00
36190;BME280;22232;50.914;13.858;2022-08-01T00:52:55;97598.28;;;19.76;100.00
36190;BME280;22232;50.914;13.858;2022-08-01T00:55:22;97596.66;;;19.75;100.00
36190;BME280;22232;50.914;13.858;2022-08-01T00:57:50;97602.06;;;19.75;100.00
36190;BME280;22232;50.914;13.858;2022-08-01T01:00:34;97594.28;;;19.73;100.00
36190;BME280;22232;50.914;13.858;2022-08-01T01:03:22;97593.97;;;19.75;100.00
36190;BME280;22232;50.914;13.858;2022-08-01T01:06:40;97597.56;;;19.70;100.00
36190;BME280;22232;50.914;13.858;2022-08-01T01:12:47;97585.03;;;19.55;100.00
36190;BME280;22232;50.914;13.858;2022-08-01T01:15:25;97593.53;;;19.48;100.00
36190;BME280;22232;50.914;13.858;2022-08-01T01:18:11;97589.59;;;19.41;100.00
36190;BME280;22232;50.914;13.858;2022-08-01T01:20:42;97583.69;;;19.39;100.00
36190;BME280;22232;50.914;13.858;2022-08-01T01:23:34;97586.44;;;19.34;100.00
36190;BME280;22232;50.914;13.858;2022-08-01T01:29:30;97589.06;;;19.20;100.00
36190;BME280;22232;50.914;13.858;2022-08-01T01:32:31;97585.13;;;19.12;100.00
36190;BME280;22232;50.914;13.858;2022-08-01T01:35:25;97583.59;;;19.06;100.00
36190;BME280;22232;50.914;13.858;2022-08-01T01:38:00;97589.84;;;19.01;100.00
36190;BME280;22232;50.914;13.858;2022-08-01T01:40:30;97586.94;;;18.98;100.00
36190;BME280;22232;50.914;13.858;2022-08-01T01:42:58;97582.41;;;18.93;100.00
36190;BME280;22232;50.914;13.858;2022-08-01T01:45:27;97583.28;;;18.89;100.00
36190;BME280;22232;50.914;13.858;2022-08-01T01:47:56;97583.56;;;18.87;100.00
36190;BME280;22232;50.914;13.858;2022-08-01T01:50:26;97575.47;;;18.87;100.00
36190;BME280;22232;50.914;13.858;2022-08-01T01:52:54;97572.25;;;18.85;100.00
36190;BME280;22232;50.914;13.858;2022-08-01T01:55:25;97569.25;;;18.87;100.00
36190;BME280;22232;50.914;13.858;2022-08-01T01:57:53;97571.94;;;18.87;100.00
36190;BME280;22232;50.914;13.858;2022-08-01T02:00:23;97561.72;;;18.84;100.00
36190;BME280;22232;50.914;13.858;2022-08-01T02:02:53;97564.41;;;18.84;100.00
36190;BME280;22232;50.914;13.858;2022-08-01T02:05:24;97562.00;;;18.82;100.00
36190;BME280;22232;50.914;13.858;2022-08-01T02:07:54;97564.19;;;18.80;100.00
36190;BME280;22232;50.914;13.858;2022-08-01T02:10:26;97563.19;;;18.76;100.00
36190;BME280;22232;50.914;13.858;2022-08-01T02:12:56;97563.75;;;18.73;100.00
36190;BME280;22232;50.914;13.858;2022-08-01T02:15:25;97569.41;;;18.71;100.00
36190;BME280;22232;50.914;13.858;2022-08-01T02:17:54;97568.09;;;18.69;100.00
36190;BME280;22232;50.914;13.858;2022-08-01T02:20:24;97564.88;;;18.67;100.00
36190;BME280;22232;50.914;13.858;2022-08-01T02:23:05;97570.28;;;18.67;100.00
36190;BME280;22232;50.914;13.858;2022-08-01T02:25:49;97571.88;;;18.68;100.00
36190;BME280;22232;50.914;13.858;2022-08-01T02:28:48;97565.91;;;18.71;100.00
36190;BME280;22232;50.914;13.858;2022-08-01T02:31:20;97570.19;;;18.77;100.00
36190;BME280;22232;50.914;13.858;2022-08-01T02:34:00;97570.97;;;18.77;100.00
36190;BME280;22232;50.914;13.858;2022-08-01T02:36:34;97575.22;;;18.84;100.00
36190;BME280;22232;50.914;13.858;2022-08-01T02:39:09;97565.75;;;18.86;100.00
36190;BME280;22232;50.914;13.858;2022-08-01T02:41:44;97573.25;;;18.89;100.00
36190;BME280;22232;50.914;13.858;2022-08-01T02:44:31;97571.09;;;18.91;100.00
36190;BME280;22232;50.914;13.858;2022-08-01T02:47:02;97578.31;;;18.96;100.00
36190;BME280;22232;50.914;13.858;2022-08-01T02:49:37;97569.66;;;18.99;100.00
36190;BME280;22232;50.914;13.858;2022-08-01T02:52:12;97577.44;;;19.00;100.00
36190;BME280;22232;50.914;13.858;2022-08-01T02:54:43;97580.38;;;19.04;100.00
36190;BME280;22232;50.914;13.858;2022-08-01T02:57:12;97582.00;;;19.05;100.00
36190;BME280;22232;50.914;13.858;2022-08-01T02:59:42;97596.00;;;19.07;100.00
36190;BME280;22232;50.914;13.858;2022-08-01T03:02:13;97594.69;;;19.05;100.00
36190;BME280;22232;50.914;13.858;2022-08-01T03:04:41;97592.56;;;19.01;100.00
36190;BME280;22232;50.914;13.858;2022-08-01T03:07:11;97589.59;;;19.03;100.00
36190;BME280;22232;50.914;13.858;2022-08-01T03:09:42;97593.59;;;19.06;100.00
36190;BME280;22232;50.914;13.858;2022-08-01T03:12:25;97601.72;;;19.06;100.00
36190;BME280;22232;50.914;13.858;2022-08-01T03:14:55;97599.38;;;18.99;100.00
36190;BME280;22232;50.914;13.858;2022-08-01T03:17:25;97604.84;;;18.94;100.00
36190;BME280;22232;50.914;13.858;2022-08-01T03:19:56;97594.81;;;18.94;100.00
36190;BME280;22232;50.914;13.858;2022-08-01T03:22:26;97590.00;;;18.91;100.00
36190;BME280;22232;50.914;13.858;2022-08-01T03:24:56;97579.72;;;18.93;100.00
36190;BME280;22232;50.914;13.858;2022-08-01T03:27:26;97581.31;;;18.94;100.00
36190;BME280;22232;50.914;13.858;2022-08-01T03:29:55;97592.88;;;19.00;100.00
36190;BME280;22232;50.914;13.858;2022-08-01T03:32:25;97586.88;;;19.03;100.00
36190;BME280;22232;50.914;13.858;2022-08-01T03:34:54;97586.56;;;19.05;100.00
36190;BME280;22232;50.914;13.858;2022-08-01T03:37:27;97581.16;;;19.05;100.00
36190;BME280;22232;50.914;13.858;2022-08-01T03:40:09;97590.91;;;19.06;100.00
36190;BME280;22232;50.914;13.858;2022-08-01T03:43:01;97593.03;;;19.09;100.00
36190;BME280;22232;50.914;13.858;2022-08-01T03:45:38;97590.03;;;19.10;100.00
36190;BME280;22232;50.914;13.858;2022-08-01T03:48:12;97590.31;;;19.09;100.00
36190;BME280;22232;50.914;13.858;2022-08-01T03:50:41;97599.59;;;19.02;100.00
36190;BME280;22232;50.914;13.858;2022-08-01T03:53:10;97596.09;;;19.02;100.00
36190;BME280;22232;50.914;13.858;2022-08-01T03:55:41;97590.97;;;19.00;100.00
36190;BME280;22232;50.914;13.858;2022-08-01T03:58:11;97591.03;;;18.95;100.00
36190;BME280;22232;50.914;13.858;2022-08-01T04:00:39;97587.56;;;18.90;100.00
36190;BME280;22232;50.914;13.858;2022-08-01T04:03:10;97594.66;;;18.86;100.00
36190;BME280;22232;50.914;13.858;2022-08-01T04:05:42;97595.03;;;18.79;100.00
36190;BME280;22232;50.914;13.858;2022-08-01T04:08:10;97591.28;;;18.75;100.00
36190;BME280;22232;50.914;13.858;2022-08-01T04:10:38;97594.53;;;18.72;100.00
36190;BME280;22232;50.914;13.858;2022-08-01T04:13:06;97597.28;;;18.67;100.00
36190;BME280;22232;50.914;13.858;2022-08-01T04:15:34;97594.81;;;18.70;100.00
36190;BME280;22232;50.914;13.858;2022-08-01T04:18:02;97608.00;;;18.77;100.00
36190;BME280;22232;50.914;13.858;2022-08-01T04:20:30;97606.75;;;18.93;100.00
36190;BME280;22232;50.914;13.858;2022-08-01T04:22:58;97600.44;;;18.98;100.00
36190;BME280;22232;50.914;13.858;2022-08-01T04:25:29;97608.03;;;18.96;100.00
36190;BME280;22232;50.914;13.858;2022-08-01T04:28:00;97613.16;;;18.97;100.00
36190;BME280;22232;50.914;13.858;2022-08-01T04:30:35;97616.41;;;18.99;100.00
36190;BME280;22232;50.914;13.858;2022-08-01T04:33:07;97619.09;;;18.99;100.00
36190;BME280;22232;50.914;13.858;2022-08-01T04:35:36;97612.31;;;19.02;100.00
36190;BME280;22232;50.914;13.858;2022-08-01T04:38:26;97606.38;;;19.00;100.00
36190;BME280;22232;50.914;13.858;2022-08-01T04:40:56;97620.41;;;19.02;100.00
36190;BME280;22232;50.914;13.858;2022-08-01T04:43:24;97613.59;;;19.05;100.00
36190;BME280;22232;50.914;13.858;2022-08-01T04:45:52;97616.03;;;19.06;100.00
36190;BME280;22232;50.914;13.858;2022-08-01T04:48:20;97621.66;;;19.10;100.00
36190;BME280;22232;50.914;13.858;2022-08-01T04:50:49;97615.09;;;19.16;100.00
36190;BME280;22232;50.914;13.858;2022-08-01T04:53:20;97612.03;;;19.22;100.00
36190;BME280;22232;50.914;13.858;2022-08-01T04:55:49;97621.66;;;19.29;100.00
36190;BME280;22232;50.914;13.858;2022-08-01T04:58:17;97608.81;;;19.39;100.00
36190;BME280;22232;50.914;13.858;2022-08-01T05:00:46;97608.59;;;19.55;100.00
36190;BME280;22232;50.914;13.858;2022-08-01T05:03:14;97612.19;;;19.69;100.00
36190;BME280;22232;50.914;13.858;2022-08-01T05:05:42;97623.13;;;19.78;100.00
36190;BME280;22232;50.914;13.858;2022-08-01T05:08:09;97619.69;;;19.91;100.00
36190;BME280;22232;50.914;13.858;2022-08-01T05:10:37;97613.38;;;19.96;100.00
36190;BME280;22232;50.914;13.858;2022-08-01T05:13:05;97613.31;;;20.01;100.00
36190;BME280;22232;50.914;13.858;2022-08-01T05:15:36;97610.13;;;20.12;100.00
36190;BME280;22232;50.914;13.858;2022-08-01T05:18:04;97624.88;;;20.20;100.00
36190;BME280;22232;50.914;13.858;2022-08-01T05:20:35;97623.09;;;20.29;100.00
36190;BME280;22232;50.914;13.858;2022-08-01T05:23:04;97624.84;;;20.39;100.00
36190;BME280;22232;50.914;13.858;2022-08-01T05:25:36;97627.63;;;20.48;100.00
36190;BME280;22232;50.914;13.858;2022-08-01T05:28:24;97623.66;;;20.59;100.00
36190;BME280;22232;50.914;13.858;2022-08-01T05:30:51;97626.88;;;20.61;100.00
36190;BME280;22232;50.914;13.858;2022-08-01T05:33:22;97630.41;;;20.61;100.00
36190;BME280;22232;50.914;13.858;2022-08-01T05:35:51;97631.44;;;20.47;100.00
36190;BME280;22232;50.914;13.858;2022-08-01T05:38:19;97629.06;;;20.45;100.00
36190;BME280;22232;50.914;13.858;2022-08-01T05:40:46;97635.34;;;20.40;100.00
36190;BME280;22232;50.914;13.858;2022-08-01T05:43:14;97628.34;;;20.39;100.00
36190;BME280;22232;50.914;13.858;2022-08-01T05:45:41;97629.81;;;20.32;100.00
36190;BME280;22232;50.914;13.858;2022-08-01T05:48:09;97637.75;;;20.28;100.00
36190;BME280;22232;50.914;13.858;2022-08-01T05:50:37;97635.16;;;20.37;100.00
36190;BME280;22232;50.914;13.858;2022-08-01T05:53:04;97635.09;;;20.56;100.00
36190;BME280;22232;50.914;13.858;2022-08-01T05:55:32;97642.94;;;20.71;100.00
36190;BME280;22232;50.914;13.858;2022-08-01T05:58:00;97635.50;;;20.91;100.00
36190;BME280;22232;50.914;13.858;2022-08-01T06:00:27;97642.00;;;21.17;100.00
36190;BME280;22232;50.914;13.858;2022-08-01T06:02:55;97639.09;;;21.27;100.00
36190;BME280;22232;50.914;13.858;2022-08-01T06:05:23;97642.81;;;21.31;100.00
36190;BME280;22232;50.914;13.858;2022-08-01T06:07:50;97638.41;;;21.36;100.00
36190;BME280;22232;50.914;13.858;2022-08-01T06:10:18;97642.91;;;21.26;100.00
36190;BME280;22232;50.914;13.858;2022-08-01T06:12:45;97648.03;;;21.28;100.00
36190;BME280;22232;50.914;13.858;2022-08-01T06:15:13;97642.41;;;21.38;100.00
36190;BME280;22232;50.914;13.858;2022-08-01T06:17:41;97645.59;;;21.54;100.00
36190;BME280;22232;50.914;13.858;2022-08-01T06:20:09;97645.06;;;21.66;100.00
36190;BME280;22232;50.914;13.858;2022-08-01T06:22:37;97650.53;;;21.88;100.00
36190;BME280;22232;50.914;13.858;2022-08-01T06:25:07;97657.28;;;21.77;100.00
36190;BME280;22232;50.914;13.858;2022-08-01T06:27:35;97656.84;;;21.61;100.00
36190;BME280;22232;50.914;13.858;2022-08-01T06:30:04;97667.72;;;21.47;100.00
36190;BME280;22232;50.914;13.858;2022-08-01T06:32:32;97662.09;;;21.30;100.00
36190;BME280;22232;50.914;13.858;2022-08-01T06:34:59;97668.34;;;21.17;100.00
36190;BME280;22232;50.914;13.858;2022-08-01T06:37:31;97673.38;;;21.10;100.00
36190;BME280;22232;50.914;13.858;2022-08-01T06:40:07;97672.66;;;20.90;100.00
36190;BME280;22232;50.914;13.858;2022-08-01T06:42:42;97680.91;;;20.85;100.00
36190;BME280;22232;50.914;13.858;2022-08-01T06:45:11;97678.56;;;20.78;100.00
36190;BME280;22232;50.914;13.858;2022-08-01T06:47:40;97684.59;;;20.75;100.00
36190;BME280;22232;50.914;13.858;2022-08-01T06:50:09;97678.69;;;20.73;100.00
36190;BME280;22232;50.914;13.858;2022-08-01T06:52:37;97679.50;;;20.74;100.00
36190;BME280;22232;50.914;13.858;2022-08-01T06:55:05;97684.72;;;20.70;100.00
36190;BME280;22232;50.914;13.858;2022-08-01T06:57:33;97682.09;;;20.65;100.00
36190;BME280;22232;50.914;13.858;2022-08-01T07:00:06;97681.97;;;20.56;100.00
36190;BME280;22232;50.914;13.858;2022-08-01T07:02:38;97684.25;;;20.49;100.00
36190;BME280;22232;50.914;13.858;2022-08-01T07:05:06;97677.06;;;20.58;100.00
36190;BME280;22232;50.914;13.858;2022-08-01T07:07:34;97687.69;;;20.55;100.00
36190;BME280;22232;50.914;13.858;2022-08-01T07:10:02;97685.84;;;20.50;100.00
36190;BME280;22232;50.914;13.858;2022-08-01T07:12:30;97688.19;;;20.57;100.00
36190;BME280;22232;50.914;13.858;2022-08-01T07:15:00;97686.38;;;20.52;100.00
36190;BME280;22232;50.914;13.858;2022-08-01T07:17:27;97685.59;;;20.52;100.00
36190;BME280;22232;50.914;13.858;2022-08-01T07:19:55;97689.59;;;20.54;100.00
36190;BME280;22232;50.914;13.858;2022-08-01T07:22:24;97695.03;;;20.68;100.00
36190;BME280;22232;50.914;13.858;2022-08-01T07:24:53;97695.34;;;20.80;100.00
36190;BME280;22232;50.914;13.858;2022-08-01T07:27:21;97695.47;;;20.89;100.00
36190;BME280;22232;50.914;13.858;2022-08-01T07:29:52;97703.63;;;21.03;100.00
36190;BME280;22232;50.914;13.858;2022-08-01T07:32:20;97689.66;;;21.10;100.00
36190;BME280;22232;50.914;13.858;2022-08-01T07:34:47;97695.88;;;21.10;100.00
36190;BME280;22232;50.914;13.858;2022-08-01T07:37:15;97696.09;;;21.00;100.00
36190;BME280;22232;50.914;13.858;2022-08-01T07:39:42;97692.03;;;20.83;100.00
36190;BME280;22232;50.914;13.858;2022-08-01T07:42:10;97698.56;;;20.82;100.00
36190;BME280;22232;50.914;13.858;2022-08-01T07:44:38;97693.75;;;20.79;100.00
36190;BME280;22232;50.914;13.858;2022-08-01T07:47:06;97696.03;;;20.72;100.00
36190;BME280;22232;50.914;13.858;2022-08-01T07:49:34;97709.00;;;20.75;100.00
36190;BME280;22232;50.914;13.858;2022-08-01T07:52:07;97697.66;;;20.87;100.00
36190;BME280;22232;50.914;13.858;2022-08-01T07:54:35;97712.41;;;20.81;100.00
36190;BME280;22232;50.914;13.858;2022-08-01T07:57:03;97713.41;;;20.71;100.00
36190;BME280;22232;50.914;13.858;2022-08-01T07:59:31;97717.03;;;20.48;100.00
36190;BME280;22232;50.914;13.858;2022-08-01T08:01:58;97724.75;;;20.40;100.00
36190;BME280;22232;50.914;13.858;2022-08-01T08:04:27;97721.44;;;20.11;100.00
36190;BME280;22232;50.914;13.858;2022-08-01T08:06:55;97723.66;;;20.09;100.00
36190;BME280;22232;50.914;13.858;2022-08-01T08:09:23;97721.28;;;20.21;100.00
36190;BME280;22232;50.914;13.858;2022-08-01T08:11:50;97716.34;;;20.23;100.00
36190;BME280;22232;50.914;13.858;2022-08-01T08:14:18;97719.66;;;20.39;100.00
36190;BME280;22232;50.914;13.858;2022-08-01T08:16:46;97716.00;;;20.62;100.00
36190;BME280;22232;50.914;13.858;2022-08-01T08:19:13;97722.53;;;20.61;100.00
36190;BME280;22232;50.914;13.858;2022-08-01T08:21:41;97717.13;;;20.75;100.00
36190;BME280;22232;50.914;13.858;2022-08-01T08:24:10;97723.25;;;20.81;100.00
36190;BME280;22232;50.914;13.858;2022-08-01T08:26:56;97722.69;;;20.98;100.00
36190;BME280;22232;50.914;13.858;2022-08-01T08:29:24;97724.28;;;20.99;100.00
36190;BME280;22232;50.914;13.858;2022-08-01T08:31:54;97725.09;;;21.27;100.00
36190;BME280;22232;50.914;13.858;2022-08-01T08:34:26;97725.50;;;21.62;100.00
36190;BME280;22232;50.914;13.858;2022-08-01T08:36:54;97726.31;;;21.98;100.00
36190;BME280;22232;50.914;13.858;2022-08-01T08:39:25;97727.47;;;22.20;100.00
36190;BME280;22232;50.914;13.858;2022-08-01T08:41:53;97726.66;;;22.42;100.00
36190;BME280;22232;50.914;13.858;2022-08-01T08:44:21;97719.97;;;22.71;100.00
36190;BME280;22232;50.914;13.858;2022-08-01T08:46:50;97722.81;;;22.65;100.00
36190;BME280;22232;50.914;13.858;2022-08-01T08:49:21;97722.56;;;22.84;100.00
36190;BME280;22232;50.914;13.858;2022-08-01T08:51:50;97725.88;;;23.52;100.00
36190;BME280;22232;50.914;13.858;2022-08-01T08:54:21;97723.06;;;23.75;100.00
36190;BME280;22232;50.914;13.858;2022-08-01T08:57:00;97722.59;;;23.90;100.00
36190;BME280;22232;50.914;13.858;2022-08-01T08:59:28;97721.97;;;24.02;100.00
36190;BME280;22232;50.914;13.858;2022-08-01T09:01:57;97720.53;;;23.96;100.00
36190;BME280;22232;50.914;13.858;2022-08-01T09:04:26;97718.25;;;23.98;100.00
36190;BME280;22232;50.914;13.858;2022-08-01T09:06:54;97719.50;;;24.70;100.00
36190;BME280;22232;50.914;13.858;2022-08-01T09:09:23;97724.44;;;25.32;100.00
36190;BME280;22232;50.914;13.858;2022-08-01T09:11:50;97723.53;;;25.70;100.00
36190;BME280;22232;50.914;13.858;2022-08-01T09:14:25;97725.59;;;25.82;100.00
36190;BME280;22232;50.914;13.858;2022-08-01T09:17:07;97727.97;;;26.04;100.00
36190;BME280;22232;50.914;13.858;2022-08-01T09:19:45;97728.53;;;25.68;100.00
36190;BME280;22232;50.914;13.858;2022-08-01T09:22:18;97727.34;;;25.27;100.00
36190;BME280;22232;50.914;13.858;2022-08-01T09:27:28;97731.34;;;24.74;100.00
36190;BME280;22232;50.914;13.858;2022-08-01T09:30:08;97738.44;;;24.40;100.00
36190;BME280;22232;50.914;13.858;2022-08-01T09:32:56;97732.06;;;24.45;100.00
36190;BME280;22232;50.914;13.858;2022-08-01T09:35:32;97740.94;;;24.80;100.00
36190;BME280;22232;50.914;13.858;2022-08-01T09:38:23;97734.22;;;24.86;100.00
36190;BME280;22232;50.914;13.858;2022-08-01T09:40:57;97735.31;;;24.94;100.00
36190;BME280;22232;50.914;13.858;2022-08-01T09:43:27;97736.91;;;24.95;100.00
36190;BME280;22232;50.914;13.858;2022-08-01T09:45:57;97735.75;;;25.05;100.00
36190;BME280;22232;50.914;13.858;2022-08-01T09:48:26;97743.13;;;25.04;100.00
36190;BME280;22232;50.914;13.858;2022-08-01T09:50:57;97733.56;;;24.89;100.00
36190;BME280;22232;50.914;13.858;2022-08-01T09:53:47;97745.81;;;24.66;100.00
36190;BME280;22232;50.914;13.858;2022-08-01T09:56:20;97743.88;;;24.66;100.00
36190;BME280;22232;50.914;13.858;2022-08-01T09:58:51;97739.09;;;24.37;100.00
36190;BME280;22232;50.914;13.858;2022-08-01T10:01:27;97725.66;;;24.32;100.00
36190;BME280;22232;50.914;13.858;2022-08-01T10:04:14;97731.16;;;24.88;100.00
36190;BME280;22232;50.914;13.858;2022-08-01T10:06:46;97729.78;;;25.50;100.00
36190;BME280;22232;50.914;13.858;2022-08-01T10:09:27;97718.66;;;26.05;100.00
36190;BME280;22232;50.914;13.858;2022-08-01T10:12:07;97720.25;;;26.06;90.67
36190;BME280;22232;50.914;13.858;2022-08-01T10:14:43;97725.84;;;25.89;89.17
36190;BME280;22232;50.914;13.858;2022-08-01T10:17:15;97725.84;;;25.89;90.48
36190;BME280;22232;50.914;13.858;2022-08-01T10:19:45;97718.25;;;25.95;87.56
36190;BME280;22232;50.914;13.858;2022-08-01T10:22:14;97719.97;;;25.78;89.24
36190;BME280;22232;50.914;13.858;2022-08-01T10:24:47;97727.47;;;25.90;88.19
36190;BME280;22232;50.914;13.858;2022-08-01T10:27:17;97719.53;;;25.97;86.80
36190;BME280;22232;50.914;13.858;2022-08-01T10:30:05;97719.41;;;26.15;83.75
36190;BME280;22232;50.914;13.858;2022-08-01T10:32:50;97718.09;;;26.33;82.27
36190;BME280;22232;50.914;13.858;2022-08-01T10:35:21;97709.19;;;26.24;78.54
36190;BME280;22232;50.914;13.858;2022-08-01T10:38:09;97712.16;;;26.52;78.04
36190;BME280;22232;50.914;13.858;2022-08-01T10:40:41;97711.22;;;27.06;74.54
36190;BME280;22232;50.914;13.858;2022-08-01T10:43:10;97706.06;;;27.65;67.66
36190;BME280;22232;50.914;13.858;2022-08-01T10:45:39;97695.06;;;28.30;66.70
36190;BME280;22232;50.914;13.858;2022-08-01T10:48:24;97702.47;;;28.30;61.92
36190;BME280;22232;50.914;13.858;2022-08-01T10:50:59;97701.59;;;28.70;63.21
36190;BME280;22232;50.914;13.858;2022-08-01T10:53:27;97703.13;;;28.67;63.24
36190;BME280;22232;50.914;13.858;2022-08-01T10:56:09;97705.03;;;28.23;63.99
36190;BME280;22232;50.914;13.858;2022-08-01T10:58:42;97712.72;;;27.52;63.45
36190;BME280;22232;50.914;13.858;2022-08-01T11:01:29;97711.28;;;26.60;69.87
36190;BME280;22232;50.914;13.858;2022-08-01T11:11:59;97733.69;;;23.36;100.00
36190;BME280;22232;50.914;13.858;2022-08-01T11:14:33;97741.47;;;22.89;100.00
36190;BME280;22232;50.914;13.858;2022-08-01T11:17:41;97736.84;;;22.36;100.00
36190;BME280;22232;50.914;13.858;2022-08-01T11:20:21;97740.31;;;22.14;100.00
36190;BME280;22232;50.914;13.858;2022-08-01T11:28:26;97743.31;;;22.27;100.00
36190;BME280;22232;50.914;13.858;2022-08-01T11:38:46;97742.16;;;23.84;100.00
36190;BME280;22232;50.914;13.858;2022-08-01T11:44:19;97735.25;;;24.56;100.00
36190;BME280;22232;50.914;13.858;2022-08-01T11:57:21;97726.84;;;25.55;100.00
36190;BME280;22232;50.914;13.858;2022-08-01T11:59:51;97723.84;;;26.19;100.00
36190;BME280;22232;50.914;13.858;2022-08-01T12:02:38;97720.75;;;26.42;96.61
36190;BME280;22232;50.914;13.858;2022-08-01T12:05:13;97727.91;;;26.67;95.20
36190;BME280;22232;50.914;13.858;2022-08-01T12:07:42;97725.00;;;26.85;87.11
36190;BME280;22232;50.914;13.858;2022-08-01T12:10:15;97719.75;;;26.92;86.34
36190;BME280;22232;50.914;13.858;2022-08-01T12:12:49;97718.19;;;27.03;84.02
36190;BME280;22232;50.914;13.858;2022-08-01T12:15:19;97721.19;;;27.35;79.29
36190;BME280;22232;50.914;13.858;2022-08-01T12:17:53;97723.00;;;27.55;79.27
36190;BME280;22232;50.914;13.858;2022-08-01T12:20:31;97716.13;;;27.74;77.49
36190;BME280;22232;50.914;13.858;2022-08-01T12:23:02;97718.53;;;27.63;75.83
36190;BME280;22232;50.914;13.858;2022-08-01T12:25:30;97718.09;;;27.36;76.65
36190;BME280;22232;50.914;13.858;2022-08-01T12:28:02;97713.69;;;26.86;76.51
36190;BME280;22232;50.914;13.858;2022-08-01T12:30:31;97723.44;;;26.29;80.26
36190;BME280;22232;50.914;13.858;2022-08-01T12:33:07;97720.81;;;25.70;84.02
36190;BME280;22232;50.914;13.858;2022-08-01T12:35:37;97733.47;;;25.54;88.33
36190;BME280;22232;50.914;13.858;2022-08-01T12:38:08;97736.78;;;24.83;99.65
36190;BME280;22232;50.914;13.858;2022-08-01T12:40:42;97740.06;;;24.33;100.00
36190;BME280;22232;50.914;13.858;2022-08-01T12:43:17;97739.25;;;23.89;100.00
36190;BME280;22232;50.914;13.858;2022-08-01T12:45:56;97742.53;;;23.51;100.00
36190;BME280;22232;50.914;13.858;2022-08-01T12:48:26;97746.41;;;23.67;100.00
36190;BME280;22232;50.914;13.858;2022-08-01T12:50:55;97740.72;;;23.86;100.00
36190;BME280;22232;50.914;13.858;2022-08-01T12:53:25;97738.31;;;23.93;100.00
36190;BME280;22232;50.914;13.858;2022-08-01T12:56:09;97727.56;;;24.23;100.00
36190;BME280;22232;50.914;13.858;2022-08-01T12:58:40;97735.09;;;24.17;100.00
36190;BME280;22232;50.914;13.858;2022-08-01T13:01:10;97738.16;;;24.51;100.00
36190;BME280;22232;50.914;13.858;2022-08-01T13:03:38;97739.06;;;24.72;100.00
36190;BME280;22232;50.914;13.858;2022-08-01T13:06:14;97745.66;;;24.27;100.00
36190;BME280;22232;50.914;13.858;2022-08-01T13:08:44;97746.31;;;23.32;100.00
36190;BME280;22232;50.914;13.858;2022-08-01T13:11:14;97754.91;;;23.17;100.00
36190;BME280;22232;50.914;13.858;2022-08-01T13:16:17;97755.22;;;23.55;100.00
36190;BME280;22232;50.914;13.858;2022-08-01T13:19:00;97737.00;;;23.91;100.00
36190;BME280;22232;50.914;13.858;2022-08-01T13:21:29;97739.75;;;23.99;98.10
36190;BME280;22232;50.914;13.858;2022-08-01T13:24:26;97731.59;;;24.08;99.06
36190;BME280;22232;50.914;13.858;2022-08-01T13:26:59;97727.50;;;24.84;91.53
36190;BME280;22232;50.914;13.858;2022-08-01T13:29:38;97725.59;;;25.82;76.57
36190;BME280;22232;50.914;13.858;2022-08-01T13:32:13;97717.00;;;26.80;71.51
36190;BME280;22232;50.914;13.858;2022-08-01T13:35:06;97720.81;;;27.61;65.49
36190;BME280;22232;50.914;13.858;2022-08-01T13:37:39;97719.53;;;27.95;61.55
36190;BME280;22232;50.914;13.858;2022-08-01T13:40:08;97721.63;;;27.49;60.21
36190;BME280;22232;50.914;13.858;2022-08-01T13:42:37;97725.03;;;27.58;63.47
36190;BME280;22232;50.914;13.858;2022-08-01T13:45:06;97722.56;;;28.06;60.77
36190;BME280;22232;50.914;13.858;2022-08-01T13:47:42;97722.34;;;27.99;58.19
36190;BME280;22232;50.914;13.858;2022-08-01T13:50:29;97717.97;;;27.20;59.14
36190;BME280;22232;50.914;13.858;2022-08-01T13:52:57;97726.75;;;26.56;58.95